createdAt,value
2022-10-20T00:01:13.591Z,19.17
2022-10-20T00:03:54.608Z,18.58
2022-10-20T00:06:41.606Z,18.05
2022-10-20T00:09:21.593Z,17.77
2022-10-20T00:12:15.598Z,17.88
2022-10-20T00:15:02.590Z,18.20
2022-10-20T00:17:42.604Z,17.17
2022-10-20T00:20:29.596Z,18.55
2022-10-20T00:23:02.647Z,17.63
2022-10-20T00:25:49.603Z,17.50
2022-10-20T00:28:22.665Z,18.02
2022-10-20T00:31:13.507Z,18.55
2022-10-20T00:33:54.633Z,18.38
2022-10-20T00:36:41.623Z,17.02
2022-10-20T00:39:21.611Z,17.88
2022-10-20T00:42:12.599Z,17.02
2022-10-20T00:44:59.595Z,18.83
2022-10-20T00:48:02.603Z,18.90
2022-10-20T00:50:52.602Z,17.95
2022-10-20T00:53:47.596Z,18.15
2022-10-20T00:56:34.627Z,17.35
2022-10-20T00:59:10.688Z,18.45
2022-10-20T01:01:57.660Z,18.83
2022-10-20T01:04:33.690Z,18.42
2022-10-20T01:07:20.611Z,17.48
2022-10-20T01:09:53.707Z,18.42
2022-10-20T01:12:55.614Z,17.98
2022-10-20T01:15:50.698Z,17.40
2022-10-20T01:18:56.627Z,17.75
2022-10-20T01:21:55.605Z,18.35
2022-10-20T01:25:08.636Z,17.05
2022-10-20T01:28:25.603Z,17.33
2022-10-20T01:31:28.635Z,17.02
2022-10-20T01:34:24.614Z,17.30
2022-10-20T01:37:07.776Z,18.08
2022-10-20T01:40:08.624Z,17.45
2022-10-20T01:42:53.642Z,18.38
2022-10-20T01:45:50.625Z,17.65
2022-10-20T01:48:40.650Z,17.00
2022-10-20T01:51:14.699Z,16.30
2022-10-20T01:54:01.630Z,17.38
2022-10-20T01:57:04.637Z,17.45
2022-10-20T02:00:00.644Z,15.85
2022-10-20T02:03:21.641Z,17.88
2022-10-20T02:06:38.661Z,16.10
2022-10-20T02:12:51.629Z,18.02
2022-10-20T02:15:30.727Z,16.83
2022-10-20T02:18:20.641Z,17.20
2022-10-20T02:20:56.726Z,17.33
2022-10-20T02:23:46.661Z,15.88
2022-10-20T02:26:23.739Z,16.55
2022-10-20T02:29:17.657Z,16.65
2022-10-20T02:31:51.733Z,17.63
2022-10-20T02:34:42.274Z,16.13
2022-10-20T02:40:03.662Z,16.40
2022-10-20T02:42:37.509Z,16.52
2022-10-20T02:45:24.638Z,18.23
2022-10-20T02:47:57.798Z,18.00
2022-10-20T02:50:44.654Z,15.55
2022-10-20T02:53:17.821Z,16.98
2022-10-20T02:56:05.656Z,16.83
2022-10-20T02:58:38.728Z,15.55
2022-10-20T03:01:25.733Z,15.30
2022-10-20T03:04:00.021Z,15.65
2022-10-20T03:06:47.668Z,16.38
2022-10-20T03:09:27.672Z,16.17
2022-10-20T03:12:21.683Z,16.35
2022-10-20T03:15:15.669Z,15.80
2022-10-20T03:18:02.675Z,15.02
2022-10-20T03:20:42.703Z,16.02
2022-10-20T03:23:29.680Z,14.70
2022-10-20T03:26:13.735Z,14.63
2022-10-20T03:29:00.669Z,14.82
2022-10-20T03:31:33.737Z,15.25
2022-10-20T03:34:20.676Z,15.63
2022-10-20T03:36:53.894Z,14.35
2022-10-20T03:39:40.687Z,14.88
2022-10-20T03:42:13.742Z,15.77
2022-10-20T03:45:00.676Z,16.70
2022-10-20T03:47:40.675Z,16.05
2022-10-20T03:50:34.673Z,16.65
2022-10-20T03:53:28.698Z,16.38
2022-10-20T03:56:18.676Z,15.32
2022-10-20T03:58:51.837Z,16.13
2022-10-20T04:01:39.738Z,16.15
2022-10-20T04:04:12.743Z,14.35
2022-10-20T04:06:59.704Z,13.55
2022-10-20T04:09:32.755Z,14.82
2022-10-20T04:12:19.706Z,14.00
2022-10-20T04:14:59.680Z,14.88
2022-10-20T04:17:53.691Z,14.93
2022-10-20T04:20:47.698Z,16.60
2022-10-20T04:23:41.690Z,16.85
2022-10-20T04:26:28.698Z,13.02
2022-10-20T04:29:09.688Z,14.18
2022-10-20T04:31:56.700Z,13.57
2022-10-20T04:34:36.708Z,14.95
2022-10-20T04:37:23.733Z,14.13
2022-10-20T04:39:57.835Z,16.00
2022-10-20T04:42:44.683Z,15.40
2022-10-20T04:45:17.813Z,13.45
2022-10-20T04:48:04.706Z,14.07
2022-10-20T04:50:37.782Z,14.07
2022-10-20T04:53:24.695Z,14.73
2022-10-20T04:56:02.783Z,15.63
2022-10-20T04:58:49.722Z,15.27
2022-10-20T05:01:30.749Z,15.35
2022-10-20T05:04:27.707Z,14.82
2022-10-20T05:07:21.720Z,15.05
2022-10-20T05:10:15.738Z,16.15
2022-10-20T05:13:02.708Z,13.77
2022-10-20T05:15:35.783Z,15.43
2022-10-20T05:18:22.721Z,15.95
2022-10-20T05:21:10.934Z,14.73
2022-10-20T05:24:02.725Z,15.45
2022-10-20T05:26:37.822Z,15.60
2022-10-20T05:29:24.737Z,14.60
2022-10-20T05:31:57.785Z,14.95
2022-10-20T05:34:45.718Z,14.75
2022-10-20T05:37:18.845Z,14.13
2022-10-20T05:40:13.723Z,16.83
2022-10-20T05:43:07.730Z,18.95
2022-10-20T05:46:07.717Z,17.02
2022-10-20T05:48:54.713Z,17.50
2022-10-20T05:51:36.727Z,17.10
2022-10-20T05:54:30.711Z,18.88
2022-10-20T05:57:17.748Z,18.02
2022-10-20T05:59:50.805Z,17.05
2022-10-20T06:02:38.024Z,15.30
2022-10-20T06:05:18.745Z,15.18
2022-10-20T06:08:05.710Z,18.13
2022-10-20T06:10:45.727Z,17.48
2022-10-20T06:13:39.715Z,17.08
2022-10-20T06:16:36.730Z,17.67
2022-10-20T06:19:23.732Z,17.50
2022-10-20T06:22:06.746Z,16.65
2022-10-20T06:24:53.754Z,15.88
2022-10-20T06:27:26.796Z,15.45
2022-10-20T06:30:16.735Z,15.57
2022-10-20T06:32:56.734Z,12.68
2022-10-20T06:35:50.743Z,14.48
2022-10-20T06:38:37.752Z,16.35
2022-10-20T06:41:12.860Z,13.55
2022-10-20T06:44:04.739Z,14.55
2022-10-20T06:46:47.749Z,13.60
2022-10-20T06:49:41.761Z,13.85
2022-10-20T06:52:28.737Z,14.70
2022-10-20T06:55:01.824Z,15.70
2022-10-20T06:57:48.739Z,15.52
2022-10-20T07:00:21.847Z,14.80
2022-10-20T07:03:08.748Z,16.38
2022-10-20T07:05:41.811Z,14.32
2022-10-20T07:08:29.785Z,17.20
2022-10-20T07:11:13.839Z,17.88
2022-10-20T07:14:00.779Z,12.18
2022-10-20T07:16:43.765Z,16.17
2022-10-20T07:19:30.741Z,15.98
2022-10-20T07:22:10.791Z,16.35
2022-10-20T07:24:57.771Z,14.88
2022-10-20T07:27:37.778Z,16.85
2022-10-20T07:30:24.774Z,16.63
2022-10-20T07:33:04.743Z,14.52
2022-10-20T07:35:58.778Z,13.82
2022-10-20T07:38:45.768Z,13.85
2022-10-20T07:41:18.859Z,12.90
2022-10-20T07:44:05.789Z,13.75
2022-10-20T07:46:38.868Z,15.55
2022-10-20T07:49:43.377Z,14.38
2022-10-20T07:52:25.760Z,14.98
2022-10-20T07:55:37.663Z,14.73
2022-10-20T07:58:32.762Z,12.50
2022-10-20T08:01:26.838Z,12.65
2022-10-20T08:04:13.785Z,13.95
2022-10-20T08:06:47.296Z,13.68
2022-10-20T08:09:34.002Z,14.23
2022-10-20T08:12:13.802Z,14.27
2022-10-20T08:15:00.803Z,13.70
2022-10-20T08:17:33.881Z,13.50
2022-10-20T08:20:29.558Z,14.88
2022-10-20T08:23:09.789Z,13.00
2022-10-20T08:26:02.803Z,14.82
2022-10-20T08:28:42.780Z,16.85
2022-10-20T08:31:29.783Z,14.20
2022-10-20T08:34:02.908Z,13.68
2022-10-20T08:36:49.779Z,14.60
2022-10-20T08:39:29.806Z,15.02
2022-10-20T08:42:17.779Z,13.77
2022-10-20T08:44:59.816Z,13.80
2022-10-20T08:47:53.783Z,14.07
2022-10-20T08:50:52.775Z,13.75
2022-10-20T08:53:28.906Z,12.77
2022-10-20T08:56:19.789Z,13.02
2022-10-20T08:58:52.944Z,14.18
2022-10-20T09:01:42.874Z,14.48
2022-10-20T09:04:26.900Z,13.25
2022-10-20T09:07:43.805Z,14.32
2022-10-20T09:10:22.891Z,15.63
2022-10-20T09:13:17.813Z,13.93
2022-10-20T09:15:57.802Z,13.60
2022-10-20T09:18:51.814Z,13.15
2022-10-20T09:21:41.804Z,13.43
2022-10-20T09:24:21.843Z,15.30
2022-10-20T09:27:42.807Z,15.93
2022-10-20T09:30:42.818Z,16.23
2022-10-20T09:33:47.808Z,16.35
2022-10-20T09:36:39.791Z,17.95
2022-10-20T09:39:19.809Z,17.88
2022-10-20T09:42:26.809Z,17.58
2022-10-20T09:45:23.882Z,15.77
2022-10-20T09:48:00.681Z,17.65
2022-10-20T09:50:52.838Z,17.98
2022-10-20T09:53:28.990Z,16.65
2022-10-20T09:56:15.820Z,14.48
2022-10-20T09:58:52.897Z,16.33
2022-10-20T10:01:39.809Z,16.58
2022-10-20T10:04:41.934Z,17.13
2022-10-20T10:07:28.821Z,18.60
2022-10-20T10:10:10.917Z,18.80
2022-10-20T10:13:07.846Z,16.13
2022-10-20T10:15:45.899Z,15.45
2022-10-20T10:18:32.838Z,17.02
2022-10-20T10:21:09.937Z,13.70
2022-10-20T10:24:07.846Z,13.77
2022-10-20T10:26:49.920Z,17.83
2022-10-20T10:29:47.844Z,16.60
2022-10-20T10:32:42.871Z,16.25
2022-10-20T10:35:39.853Z,16.60
2022-10-20T10:38:15.930Z,15.02
2022-10-20T10:41:31.820Z,13.52
2022-10-20T10:44:51.905Z,13.45
2022-10-20T10:48:08.843Z,13.88
2022-10-20T10:51:03.853Z,17.08
2022-10-20T10:53:49.835Z,14.43
2022-10-20T10:56:39.857Z,14.57
2022-10-20T10:59:43.850Z,12.65
2022-10-20T11:02:37.091Z,14.43
2022-10-20T11:05:19.983Z,16.00
2022-10-20T11:08:23.874Z,17.08
2022-10-20T11:11:15.936Z,13.52
2022-10-20T11:14:02.854Z,13.27
2022-10-20T11:16:43.944Z,14.40
2022-10-20T11:19:52.859Z,12.52
2022-10-20T11:23:03.949Z,11.90
2022-10-20T11:26:01.875Z,14.65
2022-10-20T11:29:04.950Z,15.23
2022-10-20T11:32:13.858Z,14.35
2022-10-20T11:35:07.916Z,15.50
2022-10-20T11:38:11.937Z,15.40
2022-10-20T11:41:07.876Z,13.55
2022-10-20T11:43:49.932Z,13.80
2022-10-20T11:46:42.858Z,15.43
2022-10-20T11:49:15.942Z,13.93
2022-10-20T11:52:27.860Z,13.88
2022-10-20T11:55:27.951Z,16.73
2022-10-20T11:58:34.878Z,14.32
2022-10-20T12:01:17.890Z,16.50
2022-10-20T12:04:23.876Z,16.17
2022-10-20T12:08:17.433Z,16.08
2022-10-20T12:11:30.879Z,17.60
2022-10-20T12:14:38.878Z,15.35
2022-10-20T12:17:37.882Z,14.60
2022-10-20T12:20:35.884Z,15.63
2022-10-20T12:23:50.889Z,15.45
2022-10-20T12:26:44.759Z,16.08
2022-10-20T12:29:44.891Z,14.93
2022-10-20T12:32:49.902Z,15.15
2022-10-20T12:35:57.891Z,15.75
2022-10-20T12:38:31.041Z,14.88
2022-10-20T12:41:30.896Z,14.77
2022-10-20T12:44:10.957Z,14.75
2022-10-20T12:47:12.911Z,13.23
2022-10-20T12:49:57.985Z,15.95
2022-10-20T12:52:46.899Z,13.43
2022-10-20T12:55:41.800Z,13.32
2022-10-20T12:58:28.900Z,15.60
2022-10-20T13:01:02.217Z,15.23
2022-10-20T13:03:50.907Z,13.32
2022-10-20T13:06:37.909Z,15.65
2022-10-20T13:09:27.954Z,15.38
2022-10-20T13:12:06.015Z,12.73
2022-10-20T13:15:00.905Z,13.38
2022-10-20T13:17:49.906Z,12.60
2022-10-20T13:21:30.922Z,13.18
2022-10-20T13:24:44.807Z,14.25
2022-10-20T13:27:39.272Z,15.50
2022-10-20T13:30:34.921Z,14.23
2022-10-20T13:34:10.927Z,15.45
2022-10-20T13:37:06.941Z,14.68
2022-10-20T13:40:18.909Z,13.80
2022-10-20T13:43:26.911Z,15.20
2022-10-20T13:46:15.068Z,15.48
2022-10-20T13:49:13.933Z,14.25
2022-10-20T13:51:54.005Z,13.90
2022-10-20T13:54:43.952Z,13.70
2022-10-20T13:57:39.013Z,13.60
2022-10-20T14:00:38.973Z,14.13
2022-10-20T14:03:31.939Z,13.90
2022-10-20T14:06:33.940Z,12.85
2022-10-20T14:09:24.054Z,14.00
2022-10-20T14:12:13.943Z,13.88
2022-10-20T14:15:01.971Z,14.65
2022-10-20T14:17:55.960Z,14.10
2022-10-20T14:20:47.957Z,16.10
2022-10-20T14:23:21.019Z,16.15
2022-10-20T14:26:09.951Z,15.65
2022-10-20T14:28:44.015Z,15.40
2022-10-20T14:31:31.979Z,15.48
2022-10-20T14:34:05.000Z,14.10
2022-10-20T14:36:51.949Z,14.63
2022-10-20T14:39:36.033Z,15.80
2022-10-20T14:42:29.946Z,14.48
2022-10-20T14:45:11.973Z,14.40
2022-10-20T14:47:59.937Z,13.73
2022-10-20T14:50:49.978Z,14.77
2022-10-20T14:53:47.946Z,14.25
2022-10-20T14:56:41.947Z,15.82
2022-10-20T14:59:42.949Z,14.52
2022-10-20T15:02:33.966Z,13.50
2022-10-20T15:05:35.967Z,15.57
2022-10-20T15:08:37.994Z,14.20
2022-10-20T15:11:38.947Z,15.40
2022-10-20T15:14:32.952Z,16.38
2022-10-20T15:17:43.990Z,15.77
2022-10-20T15:20:37.457Z,19.38
2022-10-20T15:23:32.968Z,21.17
2022-10-20T15:26:12.042Z,21.48
2022-10-20T15:29:05.967Z,21.38
2022-10-20T15:31:52.982Z,19.33
2022-10-20T15:34:26.605Z,20.98
2022-10-20T15:37:12.981Z,23.00
2022-10-20T15:39:46.098Z,22.17
2022-10-20T15:42:32.967Z,20.70
2022-10-20T15:45:06.044Z,19.65
2022-10-20T15:47:52.982Z,18.58
2022-10-20T15:50:26.046Z,19.38
2022-10-20T15:53:12.996Z,17.10
2022-10-20T15:55:49.052Z,16.95
2022-10-20T15:58:39.635Z,17.75
2022-10-20T16:01:13.164Z,19.40
2022-10-20T16:03:59.968Z,20.17
2022-10-20T16:06:33.045Z,19.15
2022-10-20T16:09:20.034Z,18.58
2022-10-20T16:12:00.992Z,18.10
2022-10-20T16:14:54.985Z,17.92
2022-10-20T16:20:40.988Z,19.15
2022-10-20T16:23:20.982Z,17.02
2022-10-20T16:26:17.980Z,18.75
2022-10-20T16:29:13.009Z,18.10
2022-10-20T16:32:07.012Z,17.77
2022-10-20T16:34:53.989Z,17.27
2022-10-20T16:37:27.335Z,18.65
2022-10-20T16:40:14.014Z,16.50
2022-10-20T16:42:53.996Z,14.88
2022-10-20T16:45:40.981Z,16.42
2022-10-20T16:48:14.069Z,15.68
2022-10-20T16:51:00.994Z,16.58
2022-10-20T16:53:41.007Z,16.15
2022-10-20T16:56:36.006Z,18.80
2022-10-20T16:59:22.996Z,18.65
2022-10-20T17:01:56.094Z,19.30
2022-10-20T17:04:42.989Z,21.80
2022-10-20T17:07:16.215Z,20.85
2022-10-20T17:10:03.017Z,20.10
2022-10-20T17:12:43.085Z,21.45
2022-10-20T17:15:37.010Z,24.30
2022-10-20T17:18:31.001Z,23.10
2022-10-20T17:21:19.008Z,21.48
2022-10-20T17:23:59.996Z,22.60
2022-10-20T17:26:54.030Z,22.60
2022-10-20T17:29:47.995Z,24.88
2022-10-20T17:32:35.403Z,24.33
2022-10-20T17:35:09.111Z,24.15
2022-10-20T17:37:56.009Z,26.95
2022-10-20T17:40:36.032Z,26.83
2022-10-20T17:43:31.020Z,26.50
2022-10-20T17:46:20.033Z,25.08
2022-10-20T17:48:54.097Z,27.70
2022-10-20T17:51:41.049Z,26.85
2022-10-20T17:54:17.154Z,23.70
2022-10-20T17:57:04.013Z,25.60
2022-10-20T17:59:47.327Z,24.33
2022-10-20T18:02:40.225Z,24.50
2022-10-20T18:05:21.048Z,26.83
2022-10-20T18:08:15.046Z,25.88
2022-10-20T18:11:02.027Z,25.88
2022-10-20T18:13:35.189Z,27.30
2022-10-20T18:16:24.024Z,25.30
2022-10-20T18:21:49.035Z,28.77
2022-10-20T18:24:30.051Z,25.15
2022-10-20T18:27:24.025Z,21.00
2022-10-20T18:30:18.026Z,21.50
2022-10-20T18:33:05.037Z,22.92
2022-10-20T18:35:38.121Z,20.85
2022-10-20T18:38:25.039Z,20.42
2022-10-20T18:40:58.194Z,22.52
2022-10-20T18:43:45.049Z,22.58
2022-10-20T18:46:26.041Z,22.67
2022-10-20T18:49:21.023Z,24.02
2022-10-20T18:52:09.049Z,20.83
2022-10-20T18:54:42.131Z,21.40
2022-10-20T18:57:29.053Z,20.23
2022-10-20T19:00:05.080Z,23.48
2022-10-20T19:02:59.343Z,24.33
2022-10-20T19:05:37.827Z,20.23
2022-10-20T19:08:24.060Z,21.45
2022-10-20T19:10:57.148Z,19.98
2022-10-20T19:13:44.063Z,21.08
2022-10-20T19:16:23.132Z,20.13
2022-10-20T19:19:13.059Z,23.58
2022-10-20T19:21:46.146Z,21.48
2022-10-20T19:24:33.054Z,20.80
2022-10-20T19:27:28.274Z,19.60
2022-10-20T19:33:14.058Z,18.35
2022-10-20T19:35:54.082Z,21.90
2022-10-20T19:38:48.079Z,26.42
2022-10-20T19:41:35.054Z,26.17
2022-10-20T19:44:08.204Z,26.95
2022-10-20T19:46:58.070Z,25.52
2022-10-20T19:49:39.091Z,23.25
2022-10-20T19:52:26.109Z,23.75
2022-10-20T19:55:07.071Z,22.35
2022-10-20T19:58:01.110Z,20.30
2022-10-20T20:00:53.125Z,20.08
2022-10-20T20:03:37.088Z,20.50
2022-10-20T20:06:35.072Z,19.10
2022-10-20T20:09:25.075Z,21.10
2022-10-20T20:11:58.249Z,21.30
2022-10-20T20:14:45.069Z,21.15
2022-10-20T20:17:25.088Z,23.23
2022-10-20T20:20:19.068Z,23.02
2022-10-20T20:23:06.085Z,23.52
2022-10-20T20:25:51.127Z,23.38
2022-10-20T20:28:45.079Z,22.17
2022-10-20T20:31:40.084Z,23.73
2022-10-20T20:34:27.142Z,23.05
2022-10-20T20:37:00.193Z,22.90
2022-10-20T20:39:47.081Z,23.80
2022-10-20T20:42:20.161Z,25.77
2022-10-20T20:45:08.072Z,22.48
2022-10-20T20:47:41.165Z,20.83
2022-10-20T20:50:28.095Z,21.20
2022-10-20T20:53:01.148Z,20.73
2022-10-20T20:55:48.090Z,20.52
2022-10-20T20:58:28.097Z,22.50
2022-10-20T21:01:26.126Z,22.92
2022-10-20T21:04:21.127Z,22.38
2022-10-20T21:07:15.099Z,23.33
2022-10-20T21:10:02.104Z,23.85
2022-10-20T21:12:35.501Z,25.75
2022-10-20T21:15:22.091Z,23.67
2022-10-20T21:18:02.090Z,22.70
2022-10-20T21:20:56.104Z,21.95
2022-10-20T21:23:50.083Z,24.00
2022-10-20T21:26:44.117Z,24.55
2022-10-20T21:29:31.110Z,21.75
2022-10-20T21:32:04.160Z,21.15
2022-10-20T21:34:51.099Z,20.58
2022-10-20T21:37:31.087Z,20.73
2022-10-20T21:40:18.112Z,22.13
2022-10-20T21:42:58.100Z,21.30
2022-10-20T21:45:52.101Z,20.77
2022-10-20T21:48:39.139Z,21.88
2022-10-20T21:51:16.177Z,21.63
2022-10-20T21:54:08.176Z,22.30
2022-10-20T21:56:50.132Z,22.42
2022-10-20T21:59:38.116Z,23.40
2022-10-20T22:02:13.880Z,21.38
2022-10-20T22:05:00.109Z,21.42
2022-10-20T22:07:35.414Z,21.42
2022-10-20T22:10:22.135Z,21.40
2022-10-20T22:12:55.200Z,22.75
2022-10-20T22:15:46.109Z,22.05
2022-10-20T22:18:26.119Z,23.23
2022-10-20T22:21:15.112Z,22.25
2022-10-20T22:23:57.105Z,23.13
2022-10-20T22:26:44.120Z,22.33
2022-10-20T22:29:18.351Z,22.42
2022-10-20T22:32:05.127Z,20.98
2022-10-20T22:34:45.137Z,21.17
2022-10-20T22:37:32.109Z,22.75
2022-10-20T22:40:12.139Z,23.80
2022-10-20T22:42:59.128Z,23.08
2022-10-20T22:45:32.213Z,24.00
2022-10-20T22:48:19.126Z,22.92
2022-10-20T22:50:59.127Z,20.25
2022-10-20T22:53:53.137Z,21.27
2022-10-20T22:56:47.126Z,21.42
2022-10-20T22:59:34.143Z,22.20
2022-10-20T23:02:07.207Z,22.83
2022-10-20T23:04:54.146Z,20.75
2022-10-20T23:07:27.241Z,20.13
2022-10-20T23:10:14.116Z,19.00
2022-10-20T23:12:47.240Z,18.60
2022-10-20T23:15:34.133Z,18.92
2022-10-20T23:18:14.168Z,20.48
2022-10-20T23:21:01.151Z,19.88
2022-10-20T23:23:41.144Z,19.50
2022-10-20T23:26:35.131Z,19.10
2022-10-20T23:29:29.132Z,17.83
2022-10-20T23:32:16.155Z,19.73
2022-10-20T23:34:49.269Z,19.58
2022-10-20T23:37:36.383Z,20.17
2022-10-20T23:40:17.157Z,20.10
2022-10-20T23:43:11.152Z,19.38
2022-10-20T23:45:58.145Z,20.85
2022-10-20T23:48:38.126Z,20.40
2022-10-20T23:51:25.158Z,23.33
2022-10-20T23:53:58.212Z,26.17
2022-10-20T23:56:45.158Z,26.27
2022-10-20T23:59:18.221Z,23.15
